sensor_id;sensor_type;location;lat;lon;timestamp;P1;durP1;ratioP1;P2;durP2;ratioP2
18576;SDS011;9418;52.694;13.294;2023-01-04T00:01:25;8.67;;;5.20;;
18576;SDS011;9418;52.694;13.294;2023-01-04T00:03:52;9.93;;;6.83;;
18576;SDS011;9418;52.694;13.294;2023-01-04T00:06:18;7.73;;;6.27;;
18576;SDS011;9418;52.694;13.294;2023-01-04T00:08:45;8.03;;;5.30;;
18576;SDS011;9418;52.694;13.294;2023-01-04T00:11:12;5.97;;;5.37;;
18576;SDS011;9418;52.694;13.294;2023-01-04T00:13:41;5.60;;;5.07;;
18576;SDS011;9418;52.694;13.294;2023-01-04T00:16:10;5.90;;;5.00;;
18576;SDS011;9418;52.694;13.294;2023-01-04T00:18:40;5.97;;;5.27;;
18576;SDS011;9418;52.694;13.294;2023-01-04T00:21:08;7.00;;;5.20;;
18576;SDS011;9418;52.694;13.294;2023-01-04T00:23:36;5.57;;;5.07;;
18576;SDS011;9418;52.694;13.294;2023-01-04T00:26:05;5.83;;;5.23;;
18576;SDS011;9418;52.694;13.294;2023-01-04T00:28:33;8.53;;;5.40;;
18576;SDS011;9418;52.694;13.294;2023-01-04T00:31:00;8.67;;;5.50;;
18576;SDS011;9418;52.694;13.294;2023-01-04T00:33:30;6.37;;;5.53;;
18576;SDS011;9418;52.694;13.294;2023-01-04T00:36:00;8.23;;;5.63;;
18576;SDS011;9418;52.694;13.294;2023-01-04T00:38:27;5.50;;;5.00;;
18576;SDS011;9418;52.694;13.294;2023-01-04T00:40:54;7.47;;;5.77;;
18576;SDS011;9418;52.694;13.294;2023-01-04T00:43:21;7.00;;;5.93;;
18576;SDS011;9418;52.694;13.294;2023-01-04T00:45:47;8.90;;;5.47;;
18576;SDS011;9418;52.694;13.294;2023-01-04T00:48:14;6.90;;;5.43;;
18576;SDS011;9418;52.694;13.294;2023-01-04T00:50:43;6.53;;;5.83;;
18576;SDS011;9418;52.694;13.294;2023-01-04T00:53:10;5.93;;;5.43;;
18576;SDS011;9418;52.694;13.294;2023-01-04T00:55:36;7.00;;;4.80;;
18576;SDS011;9418;52.694;13.294;2023-01-04T00:58:03;9.60;;;6.20;;
18576;SDS011;9418;52.694;13.294;2023-01-04T01:00:30;12.03;;;5.37;;
18576;SDS011;9418;52.694;13.294;2023-01-04T01:02:57;5.93;;;5.33;;
18576;SDS011;9418;52.694;13.294;2023-01-04T01:05:23;5.10;;;4.70;;
18576;SDS011;9418;52.694;13.294;2023-01-04T01:07:51;4.77;;;4.30;;
18576;SDS011;9418;52.694;13.294;2023-01-04T01:10:18;8.50;;;5.77;;
18576;SDS011;9418;52.694;13.294;2023-01-04T01:12:44;5.53;;;4.97;;
18576;SDS011;9418;52.694;13.294;2023-01-04T01:15:11;5.13;;;4.63;;
18576;SDS011;9418;52.694;13.294;2023-01-04T01:17:38;4.93;;;4.40;;
18576;SDS011;9418;52.694;13.294;2023-01-04T01:20:04;5.10;;;4.70;;
18576;SDS011;9418;52.694;13.294;2023-01-04T01:22:33;4.83;;;3.87;;
18576;SDS011;9418;52.694;13.294;2023-01-04T01:25:02;7.50;;;4.60;;
18576;SDS011;9418;52.694;13.294;2023-01-04T01:27:29;5.70;;;5.00;;
18576;SDS011;9418;52.694;13.294;2023-01-04T01:29:55;4.37;;;4.07;;
18576;SDS011;9418;52.694;13.294;2023-01-04T01:32:22;4.63;;;4.23;;
18576;SDS011;9418;52.694;13.294;2023-01-04T01:34:49;6.20;;;5.47;;
18576;SDS011;9418;52.694;13.294;2023-01-04T01:37:15;5.63;;;4.60;;
18576;SDS011;9418;52.694;13.294;2023-01-04T01:39:42;6.00;;;4.93;;
18576;SDS011;9418;52.694;13.294;2023-01-04T01:42:16;5.63;;;4.73;;
18576;SDS011;9418;52.694;13.294;2023-01-04T01:47:36;7.50;;;3.80;;
18576;SDS011;9418;52.694;13.294;2023-01-04T01:50:12;8.23;;;4.80;;
18576;SDS011;9418;52.694;13.294;2023-01-04T01:52:45;4.57;;;4.17;;
18576;SDS011;9418;52.694;13.294;2023-01-04T01:55:13;7.67;;;5.27;;
18576;SDS011;9418;52.694;13.294;2023-01-04T01:57:42;7.60;;;5.63;;
18576;SDS011;9418;52.694;13.294;2023-01-04T02:00:11;4.87;;;4.43;;
18576;SDS011;9418;52.694;13.294;2023-01-04T02:02:40;4.20;;;3.90;;
18576;SDS011;9418;52.694;13.294;2023-01-04T02:05:10;4.70;;;3.90;;
18576;SDS011;9418;52.694;13.294;2023-01-04T02:07:37;4.20;;;3.90;;
18576;SDS011;9418;52.694;13.294;2023-01-04T02:10:04;4.33;;;4.00;;
18576;SDS011;9418;52.694;13.294;2023-01-04T02:12:32;4.00;;;3.73;;
18576;SDS011;9418;52.694;13.294;2023-01-04T02:15:00;4.83;;;3.57;;
18576;SDS011;9418;52.694;13.294;2023-01-04T02:17:31;6.10;;;3.83;;
18576;SDS011;9418;52.694;13.294;2023-01-04T02:23:14;4.60;;;4.20;;
18576;SDS011;9418;52.694;13.294;2023-01-04T02:26:00;4.13;;;3.70;;
18576;SDS011;9418;52.694;13.294;2023-01-04T02:28:55;3.57;;;3.27;;
18576;SDS011;9418;52.694;13.294;2023-01-04T02:31:41;3.60;;;3.40;;
18576;SDS011;9418;52.694;13.294;2023-01-04T02:34:13;3.57;;;3.27;;
18576;SDS011;9418;52.694;13.294;2023-01-04T02:36:46;5.20;;;4.67;;
18576;SDS011;9418;52.694;13.294;2023-01-04T02:39:24;4.93;;;3.50;;
18576;SDS011;9418;52.694;13.294;2023-01-04T02:42:01;4.63;;;4.17;;
18576;SDS011;9418;52.694;13.294;2023-01-04T02:44:34;4.40;;;4.00;;
18576;SDS011;9418;52.694;13.294;2023-01-04T02:47:19;4.40;;;3.20;;
18576;SDS011;9418;52.694;13.294;2023-01-04T02:50:07;4.87;;;3.60;;
18576;SDS011;9418;52.694;13.294;2023-01-04T02:52:58;5.50;;;3.80;;
18576;SDS011;9418;52.694;13.294;2023-01-04T02:55:28;8.77;;;3.87;;
18576;SDS011;9418;52.694;13.294;2023-01-04T02:58:04;6.20;;;3.87;;
18576;SDS011;9418;52.694;13.294;2023-01-04T03:00:40;5.10;;;3.37;;
18576;SDS011;9418;52.694;13.294;2023-01-04T03:03:37;4.17;;;3.80;;
18576;SDS011;9418;52.694;13.294;2023-01-04T03:06:36;5.03;;;3.63;;
18576;SDS011;9418;52.694;13.294;2023-01-04T03:09:08;3.70;;;3.40;;
18576;SDS011;9418;52.694;13.294;2023-01-04T03:11:40;4.63;;;3.83;;
18576;SDS011;9418;52.694;13.294;2023-01-04T03:14:27;8.53;;;3.33;;
18576;SDS011;9418;52.694;13.294;2023-01-04T03:16:59;3.40;;;3.10;;
18576;SDS011;9418;52.694;13.294;2023-01-04T03:19:29;4.27;;;3.87;;
18576;SDS011;9418;52.694;13.294;2023-01-04T03:22:14;5.80;;;4.03;;
18576;SDS011;9418;52.694;13.294;2023-01-04T03:24:57;3.07;;;2.87;;
18576;SDS011;9418;52.694;13.294;2023-01-04T03:27:43;3.40;;;3.17;;
18576;SDS011;9418;52.694;13.294;2023-01-04T03:30:33;4.23;;;3.73;;
18576;SDS011;9418;52.694;13.294;2023-01-04T03:33:21;3.77;;;3.50;;
18576;SDS011;9418;52.694;13.294;2023-01-04T03:36:09;8.50;;;3.27;;
18576;SDS011;9418;52.694;13.294;2023-01-04T03:38:42;5.70;;;3.30;;
18576;SDS011;9418;52.694;13.294;2023-01-04T03:41:30;3.83;;;3.10;;
18576;SDS011;9418;52.694;13.294;2023-01-04T03:44:28;5.50;;;3.10;;
18576;SDS011;9418;52.694;13.294;2023-01-04T03:47:16;3.63;;;3.30;;
18576;SDS011;9418;52.694;13.294;2023-01-04T03:50:04;3.53;;;3.23;;
18576;SDS011;9418;52.694;13.294;2023-01-04T03:52:37;5.70;;;3.60;;
18576;SDS011;9418;52.694;13.294;2023-01-04T03:55:06;4.97;;;3.30;;
18576;SDS011;9418;52.694;13.294;2023-01-04T03:57:35;6.13;;;3.40;;
18576;SDS011;9418;52.694;13.294;2023-01-04T04:00:04;3.43;;;3.13;;
18576;SDS011;9418;52.694;13.294;2023-01-04T04:02:35;6.17;;;3.23;;
18576;SDS011;9418;52.694;13.294;2023-01-04T04:05:02;6.70;;;3.77;;
18576;SDS011;9418;52.694;13.294;2023-01-04T04:07:47;4.63;;;3.57;;
18576;SDS011;9418;52.694;13.294;2023-01-04T04:10:32;4.20;;;3.60;;
18576;SDS011;9418;52.694;13.294;2023-01-04T04:12:58;6.50;;;3.90;;
18576;SDS011;9418;52.694;13.294;2023-01-04T04:15:25;4.20;;;3.50;;
18576;SDS011;9418;52.694;13.294;2023-01-04T04:17:51;3.30;;;3.00;;
18576;SDS011;9418;52.694;13.294;2023-01-04T04:20:18;4.13;;;3.37;;
18576;SDS011;9418;52.694;13.294;2023-01-04T04:22:44;5.13;;;3.37;;
18576;SDS011;9418;52.694;13.294;2023-01-04T04:25:12;5.43;;;3.60;;
18576;SDS011;9418;52.694;13.294;2023-01-04T04:27:39;5.17;;;3.50;;
18576;SDS011;9418;52.694;13.294;2023-01-04T04:30:06;4.30;;;3.47;;
18576;SDS011;9418;52.694;13.294;2023-01-04T04:32:33;3.63;;;3.33;;
18576;SDS011;9418;52.694;13.294;2023-01-04T04:35:00;5.00;;;3.77;;
18576;SDS011;9418;52.694;13.294;2023-01-04T04:37:26;5.27;;;3.73;;
18576;SDS011;9418;52.694;13.294;2023-01-04T04:39:55;5.30;;;3.37;;
18576;SDS011;9418;52.694;13.294;2023-01-04T04:42:23;6.80;;;3.77;;
18576;SDS011;9418;52.694;13.294;2023-01-04T04:44:49;3.77;;;3.40;;
18576;SDS011;9418;52.694;13.294;2023-01-04T04:47:15;3.73;;;3.33;;
18576;SDS011;9418;52.694;13.294;2023-01-04T04:49:42;3.50;;;3.20;;
18576;SDS011;9418;52.694;13.294;2023-01-04T04:52:09;7.03;;;3.27;;
18576;SDS011;9418;52.694;13.294;2023-01-04T04:54:35;3.63;;;3.33;;
18576;SDS011;9418;52.694;13.294;2023-01-04T04:57:02;4.67;;;2.83;;
18576;SDS011;9418;52.694;13.294;2023-01-04T04:59:30;6.00;;;4.97;;
18576;SDS011;9418;52.694;13.294;2023-01-04T05:01:57;8.07;;;5.67;;
18576;SDS011;9418;52.694;13.294;2023-01-04T05:04:23;4.60;;;3.70;;
18576;SDS011;9418;52.694;13.294;2023-01-04T05:06:50;6.50;;;4.30;;
18576;SDS011;9418;52.694;13.294;2023-01-04T05:09:17;5.57;;;3.63;;
18576;SDS011;9418;52.694;13.294;2023-01-04T05:11:44;5.30;;;3.50;;
18576;SDS011;9418;52.694;13.294;2023-01-04T05:14:30;3.53;;;3.27;;
18576;SDS011;9418;52.694;13.294;2023-01-04T05:16:57;7.33;;;3.77;;
18576;SDS011;9418;52.694;13.294;2023-01-04T05:19:23;3.63;;;3.33;;
18576;SDS011;9418;52.694;13.294;2023-01-04T05:21:50;4.90;;;3.40;;
18576;SDS011;9418;52.694;13.294;2023-01-04T05:24:16;5.37;;;2.93;;
18576;SDS011;9418;52.694;13.294;2023-01-04T05:26:43;5.17;;;3.63;;
18576;SDS011;9418;52.694;13.294;2023-01-04T05:29:09;3.30;;;3.00;;
18576;SDS011;9418;52.694;13.294;2023-01-04T05:31:57;5.90;;;3.33;;
18576;SDS011;9418;52.694;13.294;2023-01-04T05:34:23;4.73;;;3.00;;
18576;SDS011;9418;52.694;13.294;2023-01-04T05:36:49;3.20;;;3.00;;
18576;SDS011;9418;52.694;13.294;2023-01-04T05:39:16;4.17;;;3.20;;
18576;SDS011;9418;52.694;13.294;2023-01-04T05:41:43;3.33;;;3.03;;
18576;SDS011;9418;52.694;13.294;2023-01-04T05:44:27;6.80;;;3.23;;
18576;SDS011;9418;52.694;13.294;2023-01-04T05:46:54;4.20;;;3.00;;
18576;SDS011;9418;52.694;13.294;2023-01-04T05:49:21;4.37;;;3.00;;
18576;SDS011;9418;52.694;13.294;2023-01-04T05:51:48;5.37;;;2.70;;
18576;SDS011;9418;52.694;13.294;2023-01-04T05:54:15;3.73;;;3.10;;
18576;SDS011;9418;52.694;13.294;2023-01-04T05:56:41;5.47;;;3.10;;
18576;SDS011;9418;52.694;13.294;2023-01-04T05:59:08;4.60;;;2.27;;
18576;SDS011;9418;52.694;13.294;2023-01-04T06:01:34;3.73;;;2.60;;
18576;SDS011;9418;52.694;13.294;2023-01-04T06:04:01;2.40;;;2.20;;
18576;SDS011;9418;52.694;13.294;2023-01-04T06:06:29;3.20;;;2.77;;
18576;SDS011;9418;52.694;13.294;2023-01-04T06:08:55;3.17;;;2.97;;
18576;SDS011;9418;52.694;13.294;2023-01-04T06:11:22;5.73;;;3.20;;
18576;SDS011;9418;52.694;13.294;2023-01-04T06:13:48;3.03;;;2.83;;
18576;SDS011;9418;52.694;13.294;2023-01-04T06:16:15;3.50;;;3.20;;
18576;SDS011;9418;52.694;13.294;2023-01-04T06:18:41;4.40;;;2.80;;
18576;SDS011;9418;52.694;13.294;2023-01-04T06:21:08;5.60;;;2.93;;
18576;SDS011;9418;52.694;13.294;2023-01-04T06:23:36;6.60;;;3.10;;
18576;SDS011;9418;52.694;13.294;2023-01-04T06:26:03;3.73;;;3.47;;
18576;SDS011;9418;52.694;13.294;2023-01-04T06:28:30;5.63;;;3.67;;
18576;SDS011;9418;52.694;13.294;2023-01-04T06:30:56;5.27;;;2.70;;
18576;SDS011;9418;52.694;13.294;2023-01-04T06:33:23;3.10;;;2.50;;
18576;SDS011;9418;52.694;13.294;2023-01-04T06:35:53;2.30;;;2.10;;
18576;SDS011;9418;52.694;13.294;2023-01-04T06:38:20;4.53;;;4.03;;
18576;SDS011;9418;52.694;13.294;2023-01-04T06:40:48;2.97;;;2.57;;
18576;SDS011;9418;52.694;13.294;2023-01-04T06:43:14;3.83;;;3.00;;
18576;SDS011;9418;52.694;13.294;2023-01-04T06:45:41;5.13;;;2.70;;
18576;SDS011;9418;52.694;13.294;2023-01-04T06:48:08;2.80;;;2.60;;
18576;SDS011;9418;52.694;13.294;2023-01-04T06:50:35;2.97;;;2.77;;
18576;SDS011;9418;52.694;13.294;2023-01-04T06:53:02;3.50;;;2.60;;
18576;SDS011;9418;52.694;13.294;2023-01-04T06:55:28;3.53;;;2.60;;
18576;SDS011;9418;52.694;13.294;2023-01-04T06:57:56;5.20;;;2.40;;
18576;SDS011;9418;52.694;13.294;2023-01-04T07:00:23;4.90;;;2.17;;
18576;SDS011;9418;52.694;13.294;2023-01-04T07:02:50;2.50;;;2.40;;
18576;SDS011;9418;52.694;13.294;2023-01-04T07:05:16;2.50;;;2.23;;
18576;SDS011;9418;52.694;13.294;2023-01-04T07:07:43;3.30;;;2.20;;
18576;SDS011;9418;52.694;13.294;2023-01-04T07:10:10;2.53;;;2.20;;
18576;SDS011;9418;52.694;13.294;2023-01-04T07:12:36;2.87;;;2.60;;
18576;SDS011;9418;52.694;13.294;2023-01-04T07:15:05;3.20;;;2.40;;
18576;SDS011;9418;52.694;13.294;2023-01-04T07:17:33;3.43;;;2.30;;
18576;SDS011;9418;52.694;13.294;2023-01-04T07:19:59;3.10;;;2.43;;
18576;SDS011;9418;52.694;13.294;2023-01-04T07:22:27;4.20;;;2.30;;
18576;SDS011;9418;52.694;13.294;2023-01-04T07:24:54;8.43;;;2.60;;
18576;SDS011;9418;52.694;13.294;2023-01-04T07:27:21;4.43;;;2.40;;
18576;SDS011;9418;52.694;13.294;2023-01-04T07:29:47;4.83;;;2.50;;
18576;SDS011;9418;52.694;13.294;2023-01-04T07:32:15;2.63;;;2.43;;
18576;SDS011;9418;52.694;13.294;2023-01-04T07:34:42;2.10;;;1.90;;
18576;SDS011;9418;52.694;13.294;2023-01-04T07:37:09;4.50;;;2.37;;
18576;SDS011;9418;52.694;13.294;2023-01-04T07:39:37;3.00;;;2.30;;
18576;SDS011;9418;52.694;13.294;2023-01-04T07:42:04;2.43;;;2.23;;
18576;SDS011;9418;52.694;13.294;2023-01-04T07:44:30;2.50;;;1.97;;
18576;SDS011;9418;52.694;13.294;2023-01-04T07:46:57;7.37;;;2.30;;
18576;SDS011;9418;52.694;13.294;2023-01-04T07:49:25;4.37;;;2.60;;
18576;SDS011;9418;52.694;13.294;2023-01-04T07:51:52;4.27;;;2.20;;
18576;SDS011;9418;52.694;13.294;2023-01-04T07:54:18;3.43;;;2.23;;
18576;SDS011;9418;52.694;13.294;2023-01-04T07:56:46;2.70;;;2.17;;
18576;SDS011;9418;52.694;13.294;2023-01-04T07:59:13;4.40;;;1.87;;
18576;SDS011;9418;52.694;13.294;2023-01-04T08:01:41;2.23;;;1.83;;
18576;SDS011;9418;52.694;13.294;2023-01-04T08:04:10;7.50;;;2.53;;
18576;SDS011;9418;52.694;13.294;2023-01-04T08:06:39;2.60;;;2.20;;
18576;SDS011;9418;52.694;13.294;2023-01-04T08:09:07;3.80;;;1.97;;
18576;SDS011;9418;52.694;13.294;2023-01-04T08:14:10;1.90;;;1.70;;
18576;SDS011;9418;52.694;13.294;2023-01-04T08:16:37;1.73;;;1.50;;
18576;SDS011;9418;52.694;13.294;2023-01-04T08:19:06;9.10;;;1.83;;
18576;SDS011;9418;52.694;13.294;2023-01-04T08:21:36;2.63;;;1.70;;
18576;SDS011;9418;52.694;13.294;2023-01-04T08:24:05;3.17;;;2.00;;
18576;SDS011;9418;52.694;13.294;2023-01-04T08:26:32;2.63;;;1.83;;
18576;SDS011;9418;52.694;13.294;2023-01-04T08:28:58;9.33;;;1.77;;
18576;SDS011;9418;52.694;13.294;2023-01-04T08:31:27;4.43;;;1.60;;
18576;SDS011;9418;52.694;13.294;2023-01-04T08:33:54;3.07;;;1.60;;
18576;SDS011;9418;52.694;13.294;2023-01-04T08:36:22;2.40;;;1.97;;
18576;SDS011;9418;52.694;13.294;2023-01-04T08:38:52;4.47;;;1.80;;
18576;SDS011;9418;52.694;13.294;2023-01-04T08:41:20;4.03;;;2.10;;
18576;SDS011;9418;52.694;13.294;2023-01-04T08:43:47;7.67;;;2.07;;
18576;SDS011;9418;52.694;13.294;2023-01-04T08:46:14;1.50;;;1.40;;
18576;SDS011;9418;52.694;13.294;2023-01-04T08:48:41;1.63;;;1.53;;
18576;SDS011;9418;52.694;13.294;2023-01-04T08:51:08;3.97;;;1.90;;
18576;SDS011;9418;52.694;13.294;2023-01-04T08:53:36;1.50;;;1.40;;
18576;SDS011;9418;52.694;13.294;2023-01-04T08:56:05;2.20;;;1.70;;
18576;SDS011;9418;52.694;13.294;2023-01-04T08:58:33;4.30;;;2.27;;
18576;SDS011;9418;52.694;13.294;2023-01-04T09:01:00;3.73;;;2.90;;
18576;SDS011;9418;52.694;13.294;2023-01-04T09:03:28;3.80;;;2.30;;
18576;SDS011;9418;52.694;13.294;2023-01-04T09:06:00;1.90;;;1.80;;
18576;SDS011;9418;52.694;13.294;2023-01-04T09:08:27;8.70;;;2.10;;
18576;SDS011;9418;52.694;13.294;2023-01-04T09:10:55;2.40;;;2.17;;
18576;SDS011;9418;52.694;13.294;2023-01-04T09:13:24;4.83;;;2.10;;
18576;SDS011;9418;52.694;13.294;2023-01-04T09:15:50;2.27;;;2.07;;
18576;SDS011;9418;52.694;13.294;2023-01-04T09:18:17;4.23;;;2.17;;
18576;SDS011;9418;52.694;13.294;2023-01-04T09:20:44;3.17;;;2.37;;
18576;SDS011;9418;52.694;13.294;2023-01-04T09:23:10;4.93;;;3.23;;
18576;SDS011;9418;52.694;13.294;2023-01-04T09:25:38;2.33;;;2.10;;
18576;SDS011;9418;52.694;13.294;2023-01-04T09:28:04;2.30;;;2.10;;
18576;SDS011;9418;52.694;13.294;2023-01-04T09:30:32;5.37;;;2.07;;
18576;SDS011;9418;52.694;13.294;2023-01-04T09:32:59;3.07;;;2.80;;
18576;SDS011;9418;52.694;13.294;2023-01-04T09:35:25;6.77;;;2.80;;
18576;SDS011;9418;52.694;13.294;2023-01-04T09:37:52;4.73;;;2.03;;
18576;SDS011;9418;52.694;13.294;2023-01-04T09:40:21;3.60;;;2.63;;
18576;SDS011;9418;52.694;13.294;2023-01-04T09:42:53;4.17;;;2.60;;
18576;SDS011;9418;52.694;13.294;2023-01-04T09:45:21;5.53;;;2.53;;
18576;SDS011;9418;52.694;13.294;2023-01-04T09:47:52;2.77;;;2.57;;
18576;SDS011;9418;52.694;13.294;2023-01-04T09:50:23;4.47;;;2.10;;
18576;SDS011;9418;52.694;13.294;2023-01-04T09:53:00;2.23;;;2.10;;
18576;SDS011;9418;52.694;13.294;2023-01-04T09:55:32;3.00;;;2.10;;
18576;SDS011;9418;52.694;13.294;2023-01-04T09:58:02;4.30;;;2.70;;
18576;SDS011;9418;52.694;13.294;2023-01-04T10:00:38;3.87;;;2.43;;
18576;SDS011;9418;52.694;13.294;2023-01-04T10:03:11;2.20;;;2.00;;
18576;SDS011;9418;52.694;13.294;2023-01-04T10:05:42;3.70;;;2.37;;
18576;SDS011;9418;52.694;13.294;2023-01-04T10:08:11;6.60;;;2.43;;
18576;SDS011;9418;52.694;13.294;2023-01-04T10:10:45;2.50;;;2.00;;
18576;SDS011;9418;52.694;13.294;2023-01-04T10:13:18;6.17;;;2.43;;
18576;SDS011;9418;52.694;13.294;2023-01-04T10:15:54;2.23;;;2.07;;
18576;SDS011;9418;52.694;13.294;2023-01-04T10:18:34;2.53;;;2.33;;
18576;SDS011;9418;52.694;13.294;2023-01-04T10:21:15;3.57;;;2.20;;
18576;SDS011;9418;52.694;13.294;2023-01-04T10:23:56;4.53;;;2.60;;
18576;SDS011;9418;52.694;13.294;2023-01-04T10:26:33;2.17;;;1.97;;
18576;SDS011;9418;52.694;13.294;2023-01-04T10:29:14;2.63;;;2.13;;
18576;SDS011;9418;52.694;13.294;2023-01-04T10:31:51;3.13;;;1.93;;
18576;SDS011;9418;52.694;13.294;2023-01-04T10:34:23;2.63;;;2.37;;
18576;SDS011;9418;52.694;13.294;2023-01-04T10:36:54;2.23;;;2.00;;
18576;SDS011;9418;52.694;13.294;2023-01-04T10:39:24;2.40;;;2.20;;
18576;SDS011;9418;52.694;13.294;2023-01-04T10:41:56;3.00;;;2.70;;
18576;SDS011;9418;52.694;13.294;2023-01-04T10:44:25;4.53;;;2.10;;
18576;SDS011;9418;52.694;13.294;2023-01-04T10:47:03;4.33;;;2.30;;
18576;SDS011;9418;52.694;13.294;2023-01-04T10:49:36;2.40;;;2.30;;
18576;SDS011;9418;52.694;13.294;2023-01-04T10:52:08;3.17;;;2.87;;
18576;SDS011;9418;52.694;13.294;2023-01-04T10:54:40;3.13;;;2.17;;
18576;SDS011;9418;52.694;13.294;2023-01-04T10:57:11;2.40;;;2.27;;
18576;SDS011;9418;52.694;13.294;2023-01-04T10:59:42;4.30;;;3.10;;
18576;SDS011;9418;52.694;13.294;2023-01-04T11:02:14;2.80;;;2.60;;
18576;SDS011;9418;52.694;13.294;2023-01-04T11:04:50;3.60;;;2.40;;
18576;SDS011;9418;52.694;13.294;2023-01-04T11:07:22;2.03;;;1.93;;
18576;SDS011;9418;52.694;13.294;2023-01-04T11:09:54;2.60;;;2.40;;
18576;SDS011;9418;52.694;13.294;2023-01-04T11:12:24;2.90;;;2.60;;
18576;SDS011;9418;52.694;13.294;2023-01-04T11:14:51;5.23;;;2.60;;
18576;SDS011;9418;52.694;13.294;2023-01-04T11:17:18;3.20;;;2.90;;
18576;SDS011;9418;52.694;13.294;2023-01-04T11:19:46;10.17;;;3.27;;
18576;SDS011;9418;52.694;13.294;2023-01-04T11:22:14;5.60;;;2.97;;
18576;SDS011;9418;52.694;13.294;2023-01-04T11:24:46;5.30;;;2.77;;
18576;SDS011;9418;52.694;13.294;2023-01-04T11:27:18;8.23;;;2.67;;
18576;SDS011;9418;52.694;13.294;2023-01-04T11:29:50;3.10;;;2.60;;
18576;SDS011;9418;52.694;13.294;2023-01-04T11:32:23;5.63;;;2.63;;
18576;SDS011;9418;52.694;13.294;2023-01-04T11:34:59;5.17;;;2.87;;
18576;SDS011;9418;52.694;13.294;2023-01-04T11:37:28;2.10;;;2.00;;
18576;SDS011;9418;52.694;13.294;2023-01-04T11:42:48;7.07;;;3.13;;
18576;SDS011;9418;52.694;13.294;2023-01-04T11:45:18;3.10;;;2.90;;
18576;SDS011;9418;52.694;13.294;2023-01-04T11:47:48;1.90;;;1.80;;
18576;SDS011;9418;52.694;13.294;2023-01-04T11:50:31;3.07;;;2.87;;
18576;SDS011;9418;52.694;13.294;2023-01-04T11:53:02;2.43;;;1.90;;
18576;SDS011;9418;52.694;13.294;2023-01-04T11:55:48;2.83;;;2.63;;
18576;SDS011;9418;52.694;13.294;2023-01-04T11:58:15;4.03;;;2.30;;
18576;SDS011;9418;52.694;13.294;2023-01-04T12:00:49;2.80;;;2.57;;
18576;SDS011;9418;52.694;13.294;2023-01-04T12:03:17;4.40;;;2.77;;
18576;SDS011;9418;52.694;13.294;2023-01-04T12:05:49;4.40;;;3.10;;
18576;SDS011;9418;52.694;13.294;2023-01-04T12:08:21;2.17;;;2.07;;
18576;SDS011;9418;52.694;13.294;2023-01-04T12:10:53;3.47;;;2.73;;
18576;SDS011;9418;52.694;13.294;2023-01-04T12:13:19;2.70;;;2.53;;
18576;SDS011;9418;52.694;13.294;2023-01-04T12:15:47;2.50;;;2.30;;
18576;SDS011;9418;52.694;13.294;2023-01-04T12:18:24;2.20;;;2.10;;
18576;SDS011;9418;52.694;13.294;2023-01-04T12:20:53;19.93;;;6.20;;
18576;SDS011;9418;52.694;13.294;2023-01-04T12:23:22;3.47;;;2.60;;
18576;SDS011;9418;52.694;13.294;2023-01-04T12:25:49;5.10;;;2.80;;
18576;SDS011;9418;52.694;13.294;2023-01-04T12:28:30;4.10;;;2.50;;
18576;SDS011;9418;52.694;13.294;2023-01-04T12:33:58;9.33;;;2.40;;
18576;SDS011;9418;52.694;13.294;2023-01-04T12:36:53;4.67;;;2.17;;
18576;SDS011;9418;52.694;13.294;2023-01-04T12:39:26;2.60;;;2.40;;
18576;SDS011;9418;52.694;13.294;2023-01-04T12:45:02;4.20;;;2.57;;
18576;SDS011;9418;52.694;13.294;2023-01-04T12:47:44;3.27;;;2.40;;
18576;SDS011;9418;52.694;13.294;2023-01-04T12:53:49;2.43;;;2.17;;
18576;SDS011;9418;52.694;13.294;2023-01-04T12:56:18;2.50;;;1.93;;
18576;SDS011;9418;52.694;13.294;2023-01-04T13:01:34;2.43;;;2.00;;
18576;SDS011;9418;52.694;13.294;2023-01-04T13:04:03;2.03;;;1.80;;
18576;SDS011;9418;52.694;13.294;2023-01-04T13:06:48;2.80;;;2.60;;
18576;SDS011;9418;52.694;13.294;2023-01-04T13:09:16;2.20;;;2.10;;
18576;SDS011;9418;52.694;13.294;2023-01-04T13:14:42;3.37;;;2.07;;
18576;SDS011;9418;52.694;13.294;2023-01-04T13:17:13;2.80;;;2.30;;
18576;SDS011;9418;52.694;13.294;2023-01-04T13:19:42;2.47;;;2.30;;
18576;SDS011;9418;52.694;13.294;2023-01-04T13:22:14;2.90;;;2.70;;
18576;SDS011;9418;52.694;13.294;2023-01-04T13:24:43;2.50;;;2.13;;
18576;SDS011;9418;52.694;13.294;2023-01-04T13:27:15;2.97;;;2.77;;
18576;SDS011;9418;52.694;13.294;2023-01-04T13:29:43;7.80;;;2.40;;
18576;SDS011;9418;52.694;13.294;2023-01-04T13:32:11;2.90;;;2.37;;
18576;SDS011;9418;52.694;13.294;2023-01-04T13:34:43;6.10;;;2.80;;
18576;SDS011;9418;52.694;13.294;2023-01-04T13:37:18;3.77;;;2.80;;
18576;SDS011;9418;52.694;13.294;2023-01-04T13:39:58;3.10;;;2.87;;
18576;SDS011;9418;52.694;13.294;2023-01-04T13:42:29;2.40;;;2.30;;
18576;SDS011;9418;52.694;13.294;2023-01-04T13:45:05;2.20;;;2.10;;
18576;SDS011;9418;52.694;13.294;2023-01-04T13:47:48;2.80;;;2.53;;
18576;SDS011;9418;52.694;13.294;2023-01-04T13:50:21;2.90;;;2.60;;
18576;SDS011;9418;52.694;13.294;2023-01-04T13:52:52;7.40;;;2.77;;
18576;SDS011;9418;52.694;13.294;2023-01-04T13:55:20;4.50;;;2.40;;
18576;SDS011;9418;52.694;13.294;2023-01-04T13:57:53;5.13;;;2.13;;
18576;SDS011;9418;52.694;13.294;2023-01-04T14:00:21;3.00;;;2.73;;
18576;SDS011;9418;52.694;13.294;2023-01-04T14:02:57;2.93;;;2.73;;
18576;SDS011;9418;52.694;13.294;2023-01-04T14:05:37;2.83;;;2.60;;
18576;SDS011;9418;52.694;13.294;2023-01-04T14:08:11;2.90;;;2.63;;
18576;SDS011;9418;52.694;13.294;2023-01-04T14:10:44;4.50;;;2.20;;
18576;SDS011;9418;52.694;13.294;2023-01-04T14:13:14;3.03;;;2.10;;
18576;SDS011;9418;52.694;13.294;2023-01-04T14:15:42;2.40;;;2.10;;
18576;SDS011;9418;52.694;13.294;2023-01-04T14:18:22;2.70;;;2.50;;
18576;SDS011;9418;52.694;13.294;2023-01-04T14:20:50;2.70;;;2.23;;
18576;SDS011;9418;52.694;13.294;2023-01-04T14:23:27;2.50;;;2.10;;
18576;SDS011;9418;52.694;13.294;2023-01-04T14:25:57;3.67;;;2.20;;
18576;SDS011;9418;52.694;13.294;2023-01-04T14:28:26;2.60;;;2.43;;
18576;SDS011;9418;52.694;13.294;2023-01-04T14:31:10;2.60;;;2.40;;
18576;SDS011;9418;52.694;13.294;2023-01-04T14:33:44;2.87;;;2.67;;
18576;SDS011;9418;52.694;13.294;2023-01-04T14:36:14;4.13;;;2.63;;
18576;SDS011;9418;52.694;13.294;2023-01-04T14:38:45;3.07;;;2.87;;
18576;SDS011;9418;52.694;13.294;2023-01-04T14:41:20;3.10;;;2.90;;
18576;SDS011;9418;52.694;13.294;2023-01-04T14:43:50;3.10;;;2.90;;
18576;SDS011;9418;52.694;13.294;2023-01-04T14:46:18;2.50;;;2.40;;
18576;SDS011;9418;52.694;13.294;2023-01-04T14:48:45;2.90;;;2.70;;
18576;SDS011;9418;52.694;13.294;2023-01-04T14:51:11;4.50;;;2.83;;
18576;SDS011;9418;52.694;13.294;2023-01-04T14:53:42;2.27;;;2.07;;
18576;SDS011;9418;52.694;13.294;2023-01-04T14:56:10;2.03;;;1.77;;
18576;SDS011;9418;52.694;13.294;2023-01-04T14:58:38;2.60;;;2.40;;
18576;SDS011;9418;52.694;13.294;2023-01-04T15:01:06;2.50;;;2.30;;
18576;SDS011;9418;52.694;13.294;2023-01-04T15:03:32;2.33;;;2.13;;
18576;SDS011;9418;52.694;13.294;2023-01-04T15:05:59;2.90;;;2.07;;
18576;SDS011;9418;52.694;13.294;2023-01-04T15:08:26;2.70;;;2.40;;
18576;SDS011;9418;52.694;13.294;2023-01-04T15:10:52;2.03;;;1.83;;
18576;SDS011;9418;52.694;13.294;2023-01-04T15:13:19;1.80;;;1.70;;
18576;SDS011;9418;52.694;13.294;2023-01-04T15:15:46;2.60;;;2.20;;
18576;SDS011;9418;52.694;13.294;2023-01-04T15:18:14;2.13;;;1.80;;
18576;SDS011;9418;52.694;13.294;2023-01-04T15:20:42;2.17;;;1.97;;
18576;SDS011;9418;52.694;13.294;2023-01-04T15:23:09;2.37;;;2.27;;
18576;SDS011;9418;52.694;13.294;2023-01-04T15:25:37;2.30;;;2.10;;
18576;SDS011;9418;52.694;13.294;2023-01-04T15:28:04;2.47;;;2.33;;
18576;SDS011;9418;52.694;13.294;2023-01-04T15:30:30;2.90;;;2.10;;
18576;SDS011;9418;52.694;13.294;2023-01-04T15:32:57;2.30;;;2.10;;
18576;SDS011;9418;52.694;13.294;2023-01-04T15:35:25;2.23;;;1.87;;